Time;durP1;ratioP1;P1;durP2;ratioP2;P2;SDS_P1;SDS_P2;PMS_P1;PMS_P2;Temp;Humidity;BMP_temperature;BMP_pressure;BME280_temperature;BME280_humidity;BME280_pressure;Samples;Min_cycle;Max_cycle;Signal;HPM_P1;HPM_P2
2021/10/29 00:01:14;;;;;;;15.32;9.65;;;;;;;;;;5019506;28;20373;-87
2021/10/29 00:03:39;;;;;;;14.70;9.10;;;;;;;;;;5012508;28;20030;-82
2021/10/29 00:06:05;;;;;;;12.98;9.10;;;;;;;;;;5020535;28;20022;-84
2021/10/29 00:08:31;;;;;;;14.10;8.65;;;;;;;;;;5019615;28;20034;-82
2021/10/29 00:10:56;;;;;;;13.80;8.88;;;;;;;;;;5016501;28;20053;-86
2021/10/29 00:13:21;;;;;;;15.45;9.35;;;;;;;;;;5012346;28;20040;-82
2021/10/29 00:15:47;;;;;;;14.93;9.13;;;;;;;;;;5008751;28;20077;-77
2021/10/29 00:18:12;;;;;;;15.52;8.80;;;;;;;;;;5015447;28;20136;-82
2021/10/29 00:20:37;;;;;;;13.80;8.75;;;;;;;;;;5015160;28;20537;-87
2021/10/29 00:23:03;;;;;;;13.82;8.55;;;;;;;;;;5009804;28;20092;-82
2021/10/29 00:25:28;;;;;;;12.60;8.55;;;;;;;;;;5018228;28;20079;-76
2021/10/29 00:27:53;;;;;;;14.55;9.13;;;;;;;;;;5020048;28;20473;-75
2021/10/29 00:30:20;;;;;;;15.00;8.90;;;;;;;;;;5015933;28;20076;-86
2021/10/29 00:32:45;;;;;;;15.02;9.45;;;;;;;;;;5018364;28;20409;-77
2021/10/29 00:35:11;;;;;;;14.70;8.63;;;;;;;;;;5018735;28;20032;-87
2021/10/29 00:37:40;;;;;;;13.80;9.15;;;;;;;;;;5017060;28;20468;-81
2021/10/29 00:40:08;;;;;;;13.30;9.00;;;;;;;;;;5012568;28;20399;-86
2021/10/29 00:42:34;;;;;;;15.10;8.10;;;;;;;;;;5009272;28;20033;-76
2021/10/29 00:45:00;;;;;;;11.10;7.88;;;;;;;;;;5012526;28;20037;-86
2021/10/29 00:47:25;;;;;;;12.18;8.82;;;;;;;;;;5007912;28;20030;-86
2021/10/29 00:49:51;;;;;;;14.15;8.57;;;;;;;;;;5015751;28;20030;-84
2021/10/29 00:52:16;;;;;;;13.95;8.50;;;;;;;;;;5016247;28;20029;-85
2021/10/29 00:54:42;;;;;;;12.13;8.20;;;;;;;;;;5018762;28;20034;-76
2021/10/29 00:57:07;;;;;;;14.80;8.50;;;;;;;;;;5020192;28;20076;-76
2021/10/29 00:59:33;;;;;;;12.90;8.45;;;;;;;;;;5020295;28;20032;-81
2021/10/29 01:01:59;;;;;;;13.45;8.57;;;;;;;;;;5013075;28;20079;-76
2021/10/29 01:04:25;;;;;;;22.55;8.65;;;;;;;;;;5020010;28;20025;-78
2021/10/29 01:06:50;;;;;;;12.20;8.13;;;;;;;;;;5017450;28;20493;-86
2021/10/29 01:09:16;;;;;;;14.70;8.52;;;;;;;;;;5022670;28;20064;-81
2021/10/29 01:11:43;;;;;;;16.15;8.82;;;;;;;;;;5021625;28;20109;-77
2021/10/29 01:14:08;;;;;;;13.13;8.23;;;;;;;;;;5010586;28;20026;-77
2021/10/29 01:16:33;;;;;;;13.50;8.10;;;;;;;;;;5012646;28;20053;-78
2021/10/29 01:18:59;;;;;;;12.75;8.20;;;;;;;;;;5015896;28;20027;-77
2021/10/29 01:21:24;;;;;;;10.75;7.65;;;;;;;;;;5003227;28;20030;-76
2021/10/29 01:23:49;;;;;;;13.15;8.55;;;;;;;;;;5012944;28;20036;-86
2021/10/29 01:26:16;;;;;;;14.57;7.95;;;;;;;;;;5015405;28;20453;-77
2021/10/29 01:28:42;;;;;;;11.07;7.78;;;;;;;;;;5015324;28;20065;-77
2021/10/29 01:31:08;;;;;;;11.25;7.85;;;;;;;;;;5015696;28;20052;-76
2021/10/29 01:33:34;;;;;;;12.35;7.72;;;;;;;;;;5011283;28;20026;-76
2021/10/29 01:36:00;;;;;;;13.10;8.55;;;;;;;;;;5013309;28;20477;-76
2021/10/29 01:38:37;;;;;;;12.05;8.30;;;;;;;;;;5010705;28;20026;-78
2021/10/29 01:41:04;;;;;;;12.27;8.07;;;;;;;;;;5015214;28;20061;-76
2021/10/29 01:43:30;;;;;;;11.75;8.05;;;;;;;;;;5005460;28;20093;-85
2021/10/29 01:45:56;;;;;;;12.00;8.05;;;;;;;;;;5020348;28;20021;-75
2021/10/29 01:48:25;;;;;;;11.68;7.75;;;;;;;;;;5010240;28;20481;-81
2021/10/29 01:50:51;;;;;;;10.70;7.60;;;;;;;;;;5003717;28;20033;-86
2021/10/29 01:53:16;;;;;;;12.05;7.55;;;;;;;;;;5009629;28;20026;-81
2021/10/29 01:55:42;;;;;;;13.05;8.32;;;;;;;;;;5016660;28;20037;-77
2021/10/29 01:58:07;;;;;;;12.45;8.27;;;;;;;;;;5013694;28;20030;-81
2021/10/29 02:00:33;;;;;;;11.60;7.50;;;;;;;;;;5009298;28;20033;-77
2021/10/29 02:02:58;;;;;;;12.40;7.60;;;;;;;;;;5012379;28;20034;-78
2021/10/29 02:05:24;;;;;;;11.73;7.60;;;;;;;;;;5011654;28;20049;-78
2021/10/29 02:07:49;;;;;;;14.63;7.93;;;;;;;;;;5013246;28;20503;-82
2021/10/29 02:10:14;;;;;;;15.38;7.82;;;;;;;;;;5012411;28;20046;-76
2021/10/29 02:12:40;;;;;;;13.32;7.80;;;;;;;;;;5015666;28;20032;-76
2021/10/29 02:15:06;;;;;;;13.07;8.20;;;;;;;;;;5007854;28;20125;-76
2021/10/29 02:17:32;;;;;;;13.43;7.82;;;;;;;;;;5014543;28;20548;-77
2021/10/29 02:19:59;;;;;;;11.88;7.60;;;;;;;;;;5010678;28;20109;-86
2021/10/29 02:22:24;;;;;;;11.07;7.50;;;;;;;;;;5010308;28;20026;-81
2021/10/29 02:24:50;;;;;;;11.30;7.93;;;;;;;;;;5015014;28;20025;-77
2021/10/29 02:27:16;;;;;;;12.65;7.72;;;;;;;;;;5015539;28;20095;-75
2021/10/29 02:29:41;;;;;;;12.75;7.88;;;;;;;;;;5006212;28;20473;-81
2021/10/29 02:32:07;;;;;;;14.25;7.63;;;;;;;;;;5011682;28;20033;-76
2021/10/29 02:34:33;;;;;;;11.38;7.88;;;;;;;;;;5012062;28;20037;-77
2021/10/29 02:36:58;;;;;;;13.40;8.63;;;;;;;;;;5012606;28;20026;-86
2021/10/29 02:39:23;;;;;;;12.65;7.75;;;;;;;;;;5009308;28;20515;-86
2021/10/29 02:41:49;;;;;;;12.07;8.20;;;;;;;;;;5013247;28;20033;-77
2021/10/29 02:44:15;;;;;;;14.45;7.85;;;;;;;;;;5011548;28;20361;-77
2021/10/29 02:46:40;;;;;;;10.90;7.18;;;;;;;;;;5002820;28;20022;-77
2021/10/29 02:49:06;;;;;;;12.27;7.80;;;;;;;;;;5013647;28;20057;-86
2021/10/29 02:51:31;;;;;;;12.98;8.15;;;;;;;;;;5011853;28;20026;-81
2021/10/29 02:53:58;;;;;;;12.23;7.55;;;;;;;;;;5012268;28;20029;-86
2021/10/29 02:56:23;;;;;;;13.23;7.85;;;;;;;;;;5014255;28;20470;-75
2021/10/29 02:58:48;;;;;;;10.23;7.15;;;;;;;;;;5004701;28;20121;-75
2021/10/29 03:01:14;;;;;;;11.38;7.60;;;;;;;;;;5008965;28;20125;-77
2021/10/29 03:03:40;;;;;;;12.98;7.63;;;;;;;;;;5015120;28;20030;-86
2021/10/29 03:06:05;;;;;;;11.38;7.90;;;;;;;;;;5007567;28;20022;-75
2021/10/29 03:08:30;;;;;;;12.52;7.63;;;;;;;;;;5019299;28;20104;-77
2021/10/29 03:10:56;;;;;;;12.80;7.95;;;;;;;;;;5015868;28;20089;-81
2021/10/29 03:13:22;;;;;;;11.15;7.78;;;;;;;;;;5011593;28;20049;-76
2021/10/29 03:15:49;;;;;;;11.93;8.02;;;;;;;;;;5015942;28;20366;-76
2021/10/29 03:18:15;;;;;;;13.27;7.60;;;;;;;;;;5008387;28;20037;-85
2021/10/29 03:20:41;;;;;;;10.82;7.70;;;;;;;;;;5017175;28;20033;-75
2021/10/29 03:23:06;;;;;;;11.73;7.63;;;;;;;;;;5018432;28;20547;-77
2021/10/29 03:25:32;;;;;;;12.98;7.75;;;;;;;;;;5025908;28;20018;-76
2021/10/29 03:27:57;;;;;;;13.27;7.55;;;;;;;;;;5016957;28;20037;-85
2021/10/29 03:30:22;;;;;;;12.45;7.43;;;;;;;;;;5011641;28;20089;-81
2021/10/29 03:32:48;;;;;;;15.02;7.85;;;;;;;;;;5019762;28;20076;-75
2021/10/29 03:35:13;;;;;;;12.05;7.53;;;;;;;;;;5026549;28;20120;-81
2021/10/29 03:40:34;;;;;;;11.27;7.63;;;;;;;;;;5019697;28;20029;-77
2021/10/29 03:43:14;;;;;;;11.15;7.82;;;;;;;;;;5013837;28;20026;-79
2021/10/29 03:45:58;;;;;;;12.20;7.68;;;;;;;;;;5015666;28;20033;-76
2021/10/29 03:51:20;;;;;;;12.00;7.80;;;;;;;;;;5003425;28;20048;-77
2021/10/29 03:54:06;;;;;;;;;;;;;;;;;;5025739;28;20022;-75
2021/10/29 03:56:41;;;;;;;12.55;7.20;;;;;;;;;;5026752;28;19923;-75
2021/10/29 03:59:06;;;;;;;12.82;7.72;;;;;;;;;;5023917;28;20025;-76
2021/10/29 04:01:33;;;;;;;12.05;7.80;;;;;;;;;;5020264;28;20038;-85
2021/10/29 04:03:58;;;;;;;10.60;7.45;;;;;;;;;;5019343;28;20480;-80
2021/10/29 04:06:24;;;;;;;11.25;7.38;;;;;;;;;;5019831;28;20075;-78
2021/10/29 04:08:49;;;;;;;12.27;7.80;;;;;;;;;;5020897;28;20113;-75
2021/10/29 04:11:20;;;;;;;11.05;7.68;;;;;;;;;;5021346;28;20091;-78
2021/10/29 04:13:45;;;;;;;10.05;7.50;;;;;;;;;;5021081;28;20233;-81
2021/10/29 04:16:11;;;;;;;14.30;8.48;;;;;;;;;;5026869;28;20136;-76
2021/10/29 04:18:37;;;;;;;11.05;7.47;;;;;;;;;;5020514;28;20068;-76
2021/10/29 04:21:03;;;;;;;10.45;7.32;;;;;;;;;;5016801;28;20133;-86
2021/10/29 04:23:29;;;;;;;15.13;8.10;;;;;;;;;;5019836;28;20109;-80
2021/10/29 04:25:55;;;;;;;12.68;7.30;;;;;;;;;;5025065;28;20029;-85
2021/10/29 04:28:20;;;;;;;12.80;8.50;;;;;;;;;;5024507;28;20026;-81
2021/10/29 04:30:46;;;;;;;13.32;7.68;;;;;;;;;;5016062;28;20026;-78
2021/10/29 04:33:12;;;;;;;11.32;7.30;;;;;;;;;;5017983;28;20064;-81
2021/10/29 04:35:40;;;;;;;11.93;7.30;;;;;;;;;;5010054;28;20034;-77
2021/10/29 04:38:08;;;;;;;11.57;7.57;;;;;;;;;;5013466;28;20029;-85
2021/10/29 04:40:36;;;;;;;13.85;7.75;;;;;;;;;;5011990;28;20034;-86
2021/10/29 04:43:03;;;;;;;10.98;7.43;;;;;;;;;;5013156;28;20036;-76
2021/10/29 04:45:28;;;;;;;11.63;7.20;;;;;;;;;;5011917;28;20026;-85
2021/10/29 04:47:54;;;;;;;11.85;7.88;;;;;;;;;;5013653;28;20041;-86
2021/10/29 04:50:19;;;;;;;13.85;7.93;;;;;;;;;;5014572;28;20022;-86
2021/10/29 04:52:45;;;;;;;11.43;7.43;;;;;;;;;;5011710;28;20026;-81
2021/10/29 04:55:10;;;;;;;11.30;7.70;;;;;;;;;;5015147;28;20053;-75
2021/10/29 04:57:35;;;;;;;13.57;8.18;;;;;;;;;;5013489;28;20026;-81
2021/10/29 05:00:05;;;;;;;11.32;7.22;;;;;;;;;;5014897;28;20458;-77
2021/10/29 05:02:30;;;;;;;12.23;7.68;;;;;;;;;;5019268;28;20025;-85
2021/10/29 05:04:55;;;;;;;10.45;7.18;;;;;;;;;;5016715;28;20032;-85
2021/10/29 05:07:21;;;;;;;13.90;7.45;;;;;;;;;;5015484;28;20037;-81
2021/10/29 05:09:46;;;;;;;10.27;7.65;;;;;;;;;;5017894;28;20506;-77
2021/10/29 05:12:11;;;;;;;12.55;7.65;;;;;;;;;;5012885;28;20033;-86
2021/10/29 05:14:37;;;;;;;10.32;7.53;;;;;;;;;;5022129;28;20037;-81
2021/10/29 05:17:02;;;;;;;11.35;7.28;;;;;;;;;;5012473;28;20496;-75
2021/10/29 05:19:28;;;;;;;11.15;7.28;;;;;;;;;;5016572;28;20072;-77
2021/10/29 05:21:53;;;;;;;12.82;7.60;;;;;;;;;;5015740;28;20032;-81
2021/10/29 05:24:18;;;;;;;12.73;7.70;;;;;;;;;;5010646;28;20045;-86
2021/10/29 05:26:44;;;;;;;12.82;7.75;;;;;;;;;;5023738;28;20050;-85
2021/10/29 05:29:10;;;;;;;14.27;7.82;;;;;;;;;;5013150;28;20018;-76
2021/10/29 05:31:36;;;;;;;15.10;8.50;;;;;;;;;;5012318;28;20078;-76
2021/10/29 05:34:01;;;;;;;14.15;8.05;;;;;;;;;;5010233;28;20042;-77
2021/10/29 05:36:26;;;;;;;10.95;6.95;;;;;;;;;;5012307;28;20113;-76
2021/10/29 05:38:52;;;;;;;12.23;8.27;;;;;;;;;;5012670;28;20087;-75
2021/10/29 05:41:17;;;;;;;10.13;7.47;;;;;;;;;;5006623;28;20080;-77
2021/10/29 05:43:42;;;;;;;11.90;7.32;;;;;;;;;;5012601;28;20041;-81
2021/10/29 05:46:08;;;;;;;11.65;7.70;;;;;;;;;;5011079;28;20050;-84
2021/10/29 05:48:34;;;;;;;12.07;6.95;;;;;;;;;;5015621;28;20029;-81
2021/10/29 05:51:08;;;;;;;11.73;7.50;;;;;;;;;;5019702;28;20035;-86
2021/10/29 05:53:38;;;;;;;11.02;7.30;;;;;;;;;;5011632;28;20040;-84
2021/10/29 05:56:04;;;;;;;11.77;7.15;;;;;;;;;;5014554;28;21287;-76
2021/10/29 05:58:30;;;;;;;11.55;7.82;;;;;;;;;;5014146;28;20062;-80
2021/10/29 06:00:56;;;;;;;10.98;7.35;;;;;;;;;;5014938;28;20060;-76
2021/10/29 06:03:21;;;;;;;11.50;7.32;;;;;;;;;;5013963;28;20507;-76
2021/10/29 06:05:46;;;;;;;13.45;8.40;;;;;;;;;;5014093;28;20049;-80
2021/10/29 06:08:12;;;;;;;10.30;6.97;;;;;;;;;;5010397;28;20036;-80
2021/10/29 06:10:37;;;;;;;13.75;7.10;;;;;;;;;;5003736;28;20386;-78
2021/10/29 06:13:02;;;;;;;12.32;7.75;;;;;;;;;;5016874;28;20374;-81
2021/10/29 06:15:28;;;;;;;11.77;7.13;;;;;;;;;;5014774;28;20025;-81
2021/10/29 06:17:54;;;;;;;12.52;8.13;;;;;;;;;;5006627;28;20544;-86
2021/10/29 06:20:20;;;;;;;13.05;7.47;;;;;;;;;;5013857;28;20488;-81
2021/10/29 06:22:49;;;;;;;12.65;7.40;;;;;;;;;;5015340;28;20029;-76
2021/10/29 06:25:25;;;;;;;11.68;7.22;;;;;;;;;;5005925;28;20041;-75
2021/10/29 06:30:36;;;;;;;11.13;7.47;;;;;;;;;;5011927;28;20084;-81
2021/10/29 06:33:02;;;;;;;12.52;7.45;;;;;;;;;;5007912;28;20049;-86
2021/10/29 06:35:29;;;;;;;10.60;7.30;;;;;;;;;;5010646;28;20474;-85
2021/10/29 06:38:00;;;;;;;12.60;8.07;;;;;;;;;;5015301;28;20369;-75
2021/10/29 06:40:28;;;;;;;13.20;7.72;;;;;;;;;;5016080;28;20034;-76
2021/10/29 06:42:58;;;;;;;9.95;7.20;;;;;;;;;;5014605;28;20167;-81
2021/10/29 06:59:15;;;;;;;12.38;7.72;;;;;;;;;;5011930;28;20088;-83
2021/10/29 07:42:27;;;;;;;12.07;8.18;;;;;;;;;;5018609;28;20037;-86
2021/10/29 07:44:53;;;;;;;11.75;7.85;;;;;;;;;;5010290;28;20033;-86
2021/10/29 07:47:21;;;;;;;11.05;7.55;;;;;;;;;;5010390;28;20661;-76
2021/10/29 07:49:46;;;;;;;11.75;7.80;;;;;;;;;;5013902;28;20049;-80
2021/10/29 07:52:14;;;;;;;10.57;7.93;;;;;;;;;;5009873;28;20033;-85
2021/10/29 07:54:44;;;;;;;11.25;7.40;;;;;;;;;;5010239;28;20394;-86
2021/10/29 07:57:11;;;;;;;12.25;7.90;;;;;;;;;;5014757;28;20088;-80
2021/10/29 07:59:37;;;;;;;11.55;7.40;;;;;;;;;;5012329;28;20042;-76
2021/10/29 08:02:02;;;;;;;10.68;7.70;;;;;;;;;;5012572;28;20022;-77
2021/10/29 08:04:28;;;;;;;14.25;7.70;;;;;;;;;;5009670;28;20059;-78
2021/10/29 08:06:53;;;;;;;10.60;7.55;;;;;;;;;;5006102;28;20064;-85
2021/10/29 08:09:21;;;;;;;10.73;7.63;;;;;;;;;;5016128;28;20036;-77
2021/10/29 08:11:49;;;;;;;12.70;7.95;;;;;;;;;;5011248;28;20080;-76
2021/10/29 08:14:15;;;;;;;11.30;7.43;;;;;;;;;;5017008;28;20028;-75
2021/10/29 08:16:41;;;;;;;12.95;7.68;;;;;;;;;;5019635;28;20369;-80
2021/10/29 08:19:07;;;;;;;13.07;7.45;;;;;;;;;;5016424;28;20025;-77
2021/10/29 08:21:32;;;;;;;12.18;7.70;;;;;;;;;;5017472;28;20073;-82
2021/10/29 08:23:58;;;;;;;11.65;7.70;;;;;;;;;;5013893;28;20025;-79
2021/10/29 08:26:23;;;;;;;12.38;7.10;;;;;;;;;;5016971;28;20026;-76
2021/10/29 08:28:49;;;;;;;11.38;8.07;;;;;;;;;;5010191;28;20053;-82
2021/10/29 08:31:14;;;;;;;13.65;7.78;;;;;;;;;;5016384;28;20037;-80
2021/10/29 08:33:40;;;;;;;11.15;7.35;;;;;;;;;;5010881;28;20032;-79
2021/10/29 08:36:06;;;;;;;14.10;7.90;;;;;;;;;;5013871;28;20021;-76
2021/10/29 08:38:31;;;;;;;13.73;7.75;;;;;;;;;;5018326;28;20113;-76
2021/10/29 08:40:58;;;;;;;15.02;9.02;;;;;;;;;;5007875;28;20033;-85
2021/10/29 08:43:23;;;;;;;14.18;7.47;;;;;;;;;;5018308;28;20096;-81
2021/10/29 08:45:50;;;;;;;12.07;8.23;;;;;;;;;;5015320;28;20017;-76
2021/10/29 08:48:16;;;;;;;12.43;7.63;;;;;;;;;;5012814;28;20445;-75
2021/10/29 08:50:41;;;;;;;11.60;8.02;;;;;;;;;;5001278;28;20061;-81
2021/10/29 08:53:07;;;;;;;11.98;7.55;;;;;;;;;;5004733;28;20062;-81
2021/10/29 08:55:34;;;;;;;11.50;7.55;;;;;;;;;;5017147;28;20056;-80
2021/10/29 08:58:02;;;;;;;12.02;7.68;;;;;;;;;;5013477;28;20026;-81
2021/10/29 09:00:33;;;;;;;12.95;7.78;;;;;;;;;;5011641;28;20017;-80
2021/10/29 09:03:16;;;;;;;12.52;7.80;;;;;;;;;;5012206;28;20723;-77
2021/10/29 09:11:28;;;;;;;14.45;7.75;;;;;;;;;;5012270;28;20062;-77
2021/10/29 09:17:44;;;;;;;9.77;7.20;;;;;;;;;;5009675;28;20029;-83
2021/10/29 09:31:37;;;;;;;11.23;6.70;;;;;;;;;;5013499;28;22018;-77
2021/10/29 09:34:10;;;;;;;10.27;6.35;;;;;;;;;;4998827;28;20467;-80
2021/10/29 09:36:47;;;;;;;9.73;6.70;;;;;;;;;;5016141;28;20061;-77
2021/10/29 09:39:20;;;;;;;9.60;6.47;;;;;;;;;;5011836;28;20045;-77
2021/10/29 09:41:59;;;;;;;10.88;6.57;;;;;;;;;;5017614;28;20026;-81
2021/10/29 09:44:37;;;;;;;11.18;6.95;;;;;;;;;;5014538;28;20445;-78
2021/10/29 09:47:04;;;;;;;10.93;6.43;;;;;;;;;;5021895;28;20029;-80
2021/10/29 09:49:35;;;;;;;10.30;6.93;;;;;;;;;;5016647;28;20072;-76
2021/10/29 09:57:30;;;;;;;10.60;6.45;;;;;;;;;;5014490;28;20489;-76
2021/10/29 09:59:59;;;;;;;13.65;7.20;;;;;;;;;;5022336;28;20048;-85
2021/10/29 10:02:27;;;;;;;12.02;6.50;;;;;;;;;;5016691;28;20061;-80
2021/10/29 10:04:55;;;;;;;10.85;6.88;;;;;;;;;;5021888;28;20061;-80
2021/10/29 10:07:22;;;;;;;8.68;6.20;;;;;;;;;;5012454;28;20024;-77
2021/10/29 10:09:51;;;;;;;12.07;5.93;;;;;;;;;;5016346;28;20386;-84
2021/10/29 10:12:20;;;;;;;10.18;6.65;;;;;;;;;;5017036;28;20042;-76
2021/10/29 10:14:47;;;;;;;10.48;6.72;;;;;;;;;;5016817;28;20042;-84
2021/10/29 10:17:15;;;;;;;10.30;6.30;;;;;;;;;;5018464;28;20532;-85
2021/10/29 10:19:41;;;;;;;10.45;6.75;;;;;;;;;;5020871;28;20080;-80
2021/10/29 10:22:11;;;;;;;9.68;6.43;;;;;;;;;;5010740;28;20057;-81
2021/10/29 10:24:36;;;;;;;8.48;6.38;;;;;;;;;;5011176;28;20068;-85
2021/10/29 10:30:01;;;;;;;10.73;6.55;;;;;;;;;;5021666;28;20101;-77
2021/10/29 10:40:57;;;;;;;10.18;6.00;;;;;;;;;;5011648;28;20044;-76
2021/10/29 10:43:56;;;;;;;10.27;6.38;;;;;;;;;;5014854;28;20108;-80
2021/10/29 10:46:22;;;;;;;9.50;6.50;;;;;;;;;;5020982;28;20022;-78
2021/10/29 10:49:07;;;;;;;11.65;6.55;;;;;;;;;;5023059;28;20497;-81
2021/10/29 10:51:38;;;;;;;9.20;6.07;;;;;;;;;;5011660;28;20116;-80
2021/10/29 10:54:17;;;;;;;14.20;6.55;;;;;;;;;;5020613;28;20075;-84
2021/10/29 11:05:43;;;;;;;9.55;6.45;;;;;;;;;;5010805;28;20030;-78
2021/10/29 11:11:05;;;;;;;7.00;5.10;;;;;;;;;;5014873;28;20449;-84
2021/10/29 11:13:42;;;;;;;9.60;5.40;;;;;;;;;;5019084;28;20046;-77
2021/10/29 11:16:09;;;;;;;8.23;5.43;;;;;;;;;;5018417;28;20029;-78
2021/10/29 11:18:38;;;;;;;10.00;5.28;;;;;;;;;;5019561;28;20586;-78
2021/10/29 11:21:21;;;;;;;8.38;5.00;;;;;;;;;;5019198;28;20037;-77
2021/10/29 11:24:08;;;;;;;9.93;4.75;;;;;;;;;;5019680;28;20504;-84
2021/10/29 11:26:39;;;;;;;8.38;4.68;;;;;;;;;;5019768;28;20029;-79
2021/10/29 11:29:05;;;;;;;7.90;4.60;;;;;;;;;;5016865;28;20061;-83
2021/10/29 11:31:37;;;;;;;7.43;4.15;;;;;;;;;;5023462;28;20120;-77
2021/10/29 11:34:05;;;;;;;6.30;4.20;;;;;;;;;;5021360;28;20021;-83
2021/10/29 11:36:37;;;;;;;7.07;3.60;;;;;;;;;;5017394;28;20029;-76
2021/10/29 11:39:09;;;;;;;5.75;3.50;;;;;;;;;;5016577;28;20014;-80
2021/10/29 11:41:36;;;;;;;10.57;4.20;;;;;;;;;;5022292;28;20032;-83
2021/10/29 11:44:04;;;;;;;7.35;3.70;;;;;;;;;;5022016;28;20481;-78
2021/10/29 11:46:32;;;;;;;8.10;3.88;;;;;;;;;;5023724;28;20184;-78
2021/10/29 11:49:01;;;;;;;9.35;3.70;;;;;;;;;;5017263;28;20025;-78
2021/10/29 11:51:27;;;;;;;7.60;3.95;;;;;;;;;;5011764;28;20088;-78
2021/10/29 12:07:19;;;;;;;6.65;3.60;;;;;;;;;;5006364;28;20088;-78
2021/10/29 12:09:47;;;;;;;8.65;3.97;;;;;;;;;;5018386;28;20053;-77
2021/10/29 12:12:15;;;;;;;6.47;3.60;;;;;;;;;;5022068;28;20022;-77
2021/10/29 12:14:44;;;;;;;5.68;3.22;;;;;;;;;;5021880;28;20036;-76
2021/10/29 12:17:40;;;;;;;6.10;3.25;;;;;;;;;;5019585;28;20062;-80
2021/10/29 12:20:35;;;;;;;8.18;3.47;;;;;;;;;;5016215;28;20026;-79
2021/10/29 12:23:09;;;;;;;5.03;2.90;;;;;;;;;;5015932;28;20060;-84
2021/10/29 12:28:19;;;;;;;5.50;3.13;;;;;;;;;;5024639;28;20041;-80
2021/10/29 12:31:10;;;;;;;7.55;3.47;;;;;;;;;;5021080;28;20041;-78
2021/10/29 13:03:57;;;;;;;5.32;2.75;;;;;;;;;;5019080;28;20043;-77
2021/10/29 13:06:28;;;;;;;6.35;2.97;;;;;;;;;;5014384;28;20022;-83
2021/10/29 13:08:54;;;;;;;7.55;3.10;;;;;;;;;;5014312;28;20392;-80
2021/10/29 13:11:21;;;;;;;7.57;2.75;;;;;;;;;;5018646;28;20049;-83
2021/10/29 13:14:07;;;;;;;6.53;3.20;;;;;;;;;;5022602;28;20028;-80
2021/10/29 13:16:32;;;;;;;4.80;2.80;;;;;;;;;;5014879;28;20048;-79
2021/10/29 13:27:34;;;;;;;;;;;;;;;;;;4953491;28;20070;-83
2021/10/29 13:35:36;;;;;;;10.73;2.83;;;;;;;;;;5019644;28;20091;-78
2021/10/29 13:38:34;;;;;;;5.32;2.70;;;;;;;;;;5014081;28;20037;-81
2021/10/29 13:51:52;;;;;;;6.43;2.72;;;;;;;;;;5020845;28;20543;-78
2021/10/29 14:32:28;;;;;;;6.63;2.88;;;;;;;;;;5000920;28;20037;-83
2021/10/29 14:34:58;;;;;;;7.38;2.90;;;;;;;;;;5013626;28;20390;-78
2021/10/29 14:37:32;;;;;;;5.60;2.80;;;;;;;;;;5019395;28;20472;-77
2021/10/29 14:47:43;;;;;;;6.28;2.80;;;;;;;;;;5019049;28;20489;-78
2021/10/29 15:29:07;;;;;;;5.03;2.90;;;;;;;;;;5019554;28;20026;-78
2021/10/29 15:45:44;;;;;;;3.92;2.70;;;;;;;;;;5010300;28;20045;-77
2021/10/29 15:48:16;;;;;;;5.90;2.78;;;;;;;;;;5000561;28;20044;-78
2021/10/29 15:50:44;;;;;;;6.57;2.80;;;;;;;;;;4998474;28;20040;-78
2021/10/29 15:53:12;;;;;;;5.15;3.10;;;;;;;;;;5007517;28;20466;-81
2021/10/29 15:55:44;;;;;;;5.30;2.92;;;;;;;;;;5010131;28;20029;-80
2021/10/29 16:03:44;;;;;;;6.00;3.20;;;;;;;;;;5009902;28;20029;-78
2021/10/29 16:17:27;;;;;;;5.50;2.80;;;;;;;;;;5022675;28;20075;-78
2021/10/29 16:19:53;;;;;;;9.23;3.17;;;;;;;;;;5005710;28;20045;-82
2021/10/29 16:22:25;;;;;;;6.88;3.00;;;;;;;;;;5008642;28;20029;-78
2021/10/29 16:27:21;;;;;;;7.30;3.08;;;;;;;;;;5010347;28;20372;-80
2021/10/29 16:29:50;;;;;;;5.97;2.60;;;;;;;;;;5008858;28;20125;-81
2021/10/29 16:32:50;;;;;;;4.82;2.75;;;;;;;;;;5004690;28;20025;-82
2021/10/29 16:35:13;;;;;;;5.45;2.80;;;;;;;;;;5015638;28;20028;-80
2021/10/29 16:37:38;;;;;;;4.03;2.92;;;;;;;;;;5009932;28;20269;-81
2021/10/29 16:40:07;;;;;;;8.27;3.17;;;;;;;;;;5002045;28;20045;-78
2021/10/29 16:42:32;;;;;;;6.15;2.63;;;;;;;;;;5022915;28;20029;-81
2021/10/29 16:44:57;;;;;;;6.18;3.42;;;;;;;;;;5009273;28;20025;-77
2021/10/29 16:47:23;;;;;;;6.78;3.10;;;;;;;;;;5007719;28;20034;-81
2021/10/29 16:49:49;;;;;;;6.78;3.35;;;;;;;;;;5015026;28;20034;-79
2021/10/29 16:52:14;;;;;;;9.48;3.63;;;;;;;;;;5008184;28;20022;-78
2021/10/29 16:54:39;;;;;;;6.80;3.30;;;;;;;;;;5025366;28;20121;-80
2021/10/29 16:57:05;;;;;;;6.57;3.65;;;;;;;;;;5009793;28;20180;-78
2021/10/29 16:59:30;;;;;;;6.60;3.67;;;;;;;;;;5005645;28;20038;-78
2021/10/29 17:01:55;;;;;;;8.13;3.35;;;;;;;;;;5008774;28;20546;-81
2021/10/29 17:04:21;;;;;;;6.88;4.05;;;;;;;;;;5010241;28;20147;-77
2021/10/29 17:06:46;;;;;;;7.13;4.30;;;;;;;;;;5008125;28;20941;-77
2021/10/29 17:09:12;;;;;;;8.32;4.97;;;;;;;;;;5008537;28;20566;-78
2021/10/29 17:11:38;;;;;;;9.27;5.15;;;;;;;;;;5016553;28;20111;-79
2021/10/29 17:14:03;;;;;;;8.73;6.32;;;;;;;;;;5017111;28;20061;-84
2021/10/29 17:16:28;;;;;;;7.18;4.72;;;;;;;;;;5009961;28;20036;-84
2021/10/29 17:18:54;;;;;;;9.05;6.05;;;;;;;;;;5013280;28;20038;-82
2021/10/29 17:21:19;;;;;;;11.95;7.85;;;;;;;;;;5014245;28;20143;-84
2021/10/29 17:23:44;;;;;;;8.27;5.50;;;;;;;;;;5011885;28;20049;-77
2021/10/29 17:26:10;;;;;;;5.53;4.65;;;;;;;;;;5010416;28;20030;-78
2021/10/29 17:28:35;;;;;;;5.55;3.90;;;;;;;;;;5014797;28;20037;-79
2021/10/29 17:31:00;;;;;;;7.60;3.90;;;;;;;;;;5016316;28;20021;-84
2021/10/29 17:33:26;;;;;;;6.63;3.78;;;;;;;;;;5015375;28;20033;-80
2021/10/29 17:35:51;;;;;;;7.93;3.70;;;;;;;;;;5014756;28;20230;-79
2021/10/29 17:38:17;;;;;;;4.85;3.38;;;;;;;;;;5008550;28;20033;-78
2021/10/29 17:40:42;;;;;;;8.13;3.60;;;;;;;;;;5008693;28;20105;-78
2021/10/29 17:43:08;;;;;;;6.68;3.60;;;;;;;;;;5010260;28;20031;-77
2021/10/29 17:45:33;;;;;;;6.53;4.30;;;;;;;;;;5017632;28;20025;-78
2021/10/29 17:47:58;;;;;;;7.85;4.70;;;;;;;;;;5017352;28;20033;-81
2021/10/29 17:50:24;;;;;;;7.45;4.40;;;;;;;;;;5005741;28;20056;-78
2021/10/29 17:52:52;;;;;;;5.95;3.70;;;;;;;;;;5006334;28;20512;-84
2021/10/29 17:55:25;;;;;;;5.22;3.20;;;;;;;;;;5007335;28;20038;-80
2021/10/29 17:57:51;;;;;;;5.43;3.50;;;;;;;;;;5004984;28;20026;-79
2021/10/29 18:00:16;;;;;;;5.30;3.53;;;;;;;;;;5013849;28;20036;-77
2021/10/29 18:02:42;;;;;;;4.88;3.05;;;;;;;;;;5009058;28;20036;-85
2021/10/29 18:05:08;;;;;;;6.25;3.05;;;;;;;;;;5010498;28;20022;-80
2021/10/29 18:07:34;;;;;;;7.13;3.22;;;;;;;;;;5012218;28;20032;-77
2021/10/29 18:10:00;;;;;;;7.07;2.95;;;;;;;;;;5010550;28;20065;-78
2021/10/29 18:12:33;;;;;;;5.53;3.13;;;;;;;;;;5004606;28;20054;-79
2021/10/29 18:14:58;;;;;;;6.65;3.40;;;;;;;;;;5008439;28;20164;-77
2021/10/29 18:17:23;;;;;;;7.10;3.42;;;;;;;;;;5009667;28;20069;-77
2021/10/29 18:19:49;;;;;;;4.80;3.22;;;;;;;;;;5008968;28;20076;-77
2021/10/29 18:22:15;;;;;;;5.13;2.92;;;;;;;;;;5005820;28;20065;-78
2021/10/29 18:24:41;;;;;;;6.18;3.03;;;;;;;;;;5007916;28;20138;-77
2021/10/29 18:27:08;;;;;;;5.18;3.45;;;;;;;;;;5009865;28;20114;-81
2021/10/29 18:29:34;;;;;;;6.50;3.65;;;;;;;;;;5008336;28;20112;-80
2021/10/29 18:32:02;;;;;;;6.82;4.32;;;;;;;;;;5007683;28;20810;-77
2021/10/29 18:34:28;;;;;;;7.95;4.40;;;;;;;;;;5014964;28;20029;-80
2021/10/29 18:36:53;;;;;;;9.02;5.10;;;;;;;;;;5011586;28;20032;-81
2021/10/29 18:39:20;;;;;;;6.30;4.40;;;;;;;;;;5009802;28;20110;-80
2021/10/29 18:41:45;;;;;;;5.78;3.78;;;;;;;;;;5005666;28;20038;-83
2021/10/29 18:44:11;;;;;;;6.28;4.60;;;;;;;;;;5008539;28;20034;-81
2021/10/29 18:46:37;;;;;;;6.80;4.53;;;;;;;;;;5010663;28;20030;-84
2021/10/29 18:49:04;;;;;;;5.88;3.83;;;;;;;;;;5017990;28;20113;-83
2021/10/29 18:51:30;;;;;;;9.60;4.07;;;;;;;;;;5014373;28;20044;-84
2021/10/29 18:53:56;;;;;;;6.53;4.20;;;;;;;;;;5009301;28;20033;-84
2021/10/29 18:56:22;;;;;;;6.13;4.00;;;;;;;;;;5010494;28;20108;-82
2021/10/29 18:58:48;;;;;;;5.10;3.72;;;;;;;;;;5010541;28;20552;-76
2021/10/29 19:01:13;;;;;;;7.45;4.10;;;;;;;;;;5008864;28;20145;-78
2021/10/29 19:03:38;;;;;;;6.82;4.30;;;;;;;;;;5011679;28;20984;-80
2021/10/29 19:06:05;;;;;;;7.60;4.40;;;;;;;;;;5005495;28;20029;-78
2021/10/29 19:08:31;;;;;;;7.40;4.60;;;;;;;;;;5008417;28;20044;-78
2021/10/29 19:10:56;;;;;;;6.55;4.55;;;;;;;;;;5007424;28;20624;-75
2021/10/29 19:13:22;;;;;;;6.90;4.57;;;;;;;;;;5001195;28;20069;-76
2021/10/29 19:15:47;;;;;;;7.85;4.80;;;;;;;;;;5008075;28;20076;-79
2021/10/29 19:18:13;;;;;;;6.35;4.45;;;;;;;;;;5009180;28;20034;-86
2021/10/29 19:20:38;;;;;;;7.20;4.93;;;;;;;;;;5006226;28;20079;-77
2021/10/29 19:23:04;;;;;;;6.43;4.57;;;;;;;;;;5009550;28;20036;-80
2021/10/29 19:25:29;;;;;;;7.57;4.70;;;;;;;;;;5010352;28;20034;-76
2021/10/29 19:27:57;;;;;;;8.88;5.75;;;;;;;;;;5012674;28;21121;-81
2021/10/29 19:30:23;;;;;;;8.45;4.80;;;;;;;;;;5014504;28;20034;-80
2021/10/29 19:32:49;;;;;;;7.45;5.03;;;;;;;;;;5008160;28;20063;-83
2021/10/29 19:35:15;;;;;;;7.65;4.88;;;;;;;;;;5007799;28;20491;-77
2021/10/29 19:40:45;;;;;;;7.55;4.38;;;;;;;;;;5000799;28;20040;-79
2021/10/29 19:43:11;;;;;;;6.32;4.50;;;;;;;;;;5004113;28;20061;-84